Time;durP1;ratioP1;P1;durP2;ratioP2;P2;SDS_P1;SDS_P2;PMS_P1;PMS_P2;Temp;Humidity;BMP_temperature;BMP_pressure;BME280_temperature;BME280_humidity;BME280_pressure;Samples;Min_cycle;Max_cycle;Signal;HPM_P1;HPM_P2
2023/03/22 00:01:11;;;;;;;32.50;23.80;;;;;;;7.61;72.23;100818.36;108196;1270;62857;-95
2023/03/22 00:03:54;;;;;;;23.40;14.20;;;;;;;7.58;72.44;100818.50;108168;1270;61997;-96
2023/03/22 00:12:00;;;;;;;20.20;15.10;;;;;;;7.55;73.10;100813.76;108393;1273;62588;-96
2023/03/22 00:16:47;;;;;;;23.40;15.70;;;;;;;7.55;73.12;100816.04;107527;1273;72122;-95
2023/03/22 00:19:22;;;;;;;26.90;15.30;;;;;;;7.51;73.10;100817.24;107121;1281;60098;-95
2023/03/22 00:21:56;;;;;;;27.50;17.70;;;;;;;7.44;73.24;100812.51;106926;1281;60540;-96
2023/03/22 00:24:40;;;;;;;23.90;16.70;;;;;;;7.43;73.23;100818.28;107069;1282;73240;-95
2023/03/22 00:27:24;;;;;;;23.70;14.60;;;;;;;7.40;73.40;100817.91;107317;1281;63125;-94
2023/03/22 00:29:54;;;;;;;25.30;16.50;;;;;;;7.36;73.48;100818.39;107250;1281;73915;-94
2023/03/22 07:24:27;;;;;;;25.60;22.00;;;;;;;21.40;40.02;101000.80;105853;1300;61047;-95
2023/03/22 07:40:18;;;;;;;22.80;19.90;;;;;;;21.65;39.13;101003.83;106458;1285;613254;-93
2023/03/22 07:43:52;;;;;;;22.50;19.00;;;;;;;21.37;39.42;101007.65;103613;1273;5600466;-94
2023/03/22 07:51:41;;;;;;;23.40;18.40;;;;;;;20.93;40.30;101002.19;108847;1266;62890;-95
2023/03/22 08:02:28;;;;;;;24.40;18.60;;;;;;;20.55;40.53;101014.98;107419;1280;61007;-94
2023/03/22 08:06:53;;;;;;;21.10;18.70;;;;;;;20.83;40.35;101014.71;106887;1284;72095;-94
2023/03/22 08:10:31;;;;;;;23.00;18.00;;;;;;;21.39;39.62;101013.33;108833;1260;614181;-93
2023/03/22 08:13:30;;;;;;;22.00;18.00;;;;;;;21.70;38.96;101018.32;110781;1243;59819;-94
2023/03/22 08:16:20;;;;;;;41.80;19.20;;;;;;;21.79;38.42;101020.29;110881;1243;59575;-93
2023/03/22 08:19:00;;;;;;;23.80;19.30;;;;;;;21.91;38.25;101016.47;111697;1235;72035;-95
2023/03/22 08:21:44;;;;;;;28.30;22.00;;;;;;;22.18;37.84;101015.33;112102;1234;64770;-93
2023/03/22 08:24:36;;;;;;;38.50;20.10;;;;;;;22.52;37.13;101010.06;112528;1231;180601;-95
2023/03/22 08:27:26;;;;;;;23.00;20.30;;;;;;;22.84;36.55;101013.68;112442;1233;60242;-94
2023/03/22 08:30:06;;;;;;;24.90;19.40;;;;;;;22.90;36.47;101008.92;112651;1231;59444;31
2023/03/22 08:32:39;;;;;;;26.80;18.40;;;;;;;22.86;35.44;101012.36;112584;1231;71218;-95
2023/03/22 08:35:20;;;;;;;27.10;18.00;;;;;;;22.86;35.76;101014.02;112440;1237;63666;31
2023/03/22 08:38:26;;;;;;;23.20;16.80;;;;;;;23.08;35.45;101011.33;111608;1234;73459;-95
2023/03/22 08:41:00;;;;;;;29.40;17.60;;;;;;;23.39;34.92;101016.54;110990;1236;61231;-96
2023/03/22 08:43:30;;;;;;;19.80;17.00;;;;;;;23.64;34.83;101017.73;110875;1238;59530;-95
2023/03/22 08:46:04;;;;;;;22.10;16.20;;;;;;;23.84;34.33;101017.90;109828;1237;72639;-91
2023/03/22 08:48:36;;;;;;;19.00;14.80;;;;;;;23.97;33.81;101014.73;109884;1240;61999;-93
2023/03/22 08:51:20;;;;;;;17.30;15.50;;;;;;;24.16;33.08;101012.11;109931;1237;72451;-96
2023/03/22 08:54:17;;;;;;;18.00;15.10;;;;;;;24.34;32.34;101011.14;109823;1238;60257;-94
2023/03/22 08:56:53;;;;;;;21.70;16.50;;;;;;;24.43;32.21;101008.67;109490;1237;59831;-95
2023/03/22 08:59:53;;;;;;;20.20;15.90;;;;;;;24.47;32.67;101012.50;110323;1241;72682;-94
2023/03/22 09:02:27;;;;;;;17.30;15.40;;;;;;;24.51;32.43;101005.95;109812;1235;64630;-95
2023/03/22 09:04:56;;;;;;;20.70;16.90;;;;;;;24.63;32.28;101013.21;111777;1235;72546;-92
2023/03/22 09:07:35;;;;;;;16.20;14.30;;;;;;;24.67;32.33;101012.13;112112;1235;59970;-94
2023/03/22 09:10:15;;;;;;;19.20;14.50;;;;;;;24.76;32.00;101016.94;112322;1235;60167;-95
2023/03/22 09:12:55;;;;;;;20.70;15.60;;;;;;;24.90;31.66;101014.16;112491;1232;72687;-95
2023/03/22 09:15:33;;;;;;;20.80;16.50;;;;;;;24.99;31.26;101014.09;111884;1237;64302;-95
2023/03/22 09:18:19;;;;;;;17.30;14.60;;;;;;;24.91;30.97;101017.98;110864;1232;72476;-96
2023/03/22 09:21:01;;;;;;;17.30;13.70;;;;;;;24.88;31.88;101015.04;110868;1237;60138;-95
2023/03/22 09:23:47;;;;;;;20.30;14.90;;;;;;;24.87;32.18;101015.73;110718;1232;61140;-94
2023/03/22 09:26:24;;;;;;;23.00;15.90;;;;;;;24.55;31.95;101015.89;110599;1232;74636;-96
2023/03/22 09:29:13;;;;;;;16.60;14.80;;;;;;;24.30;32.06;101014.11;110362;1232;64358;-94
2023/03/22 09:31:47;;;;;;;17.30;14.70;;;;;;;24.14;32.44;101013.77;111289;1232;72625;-95
2023/03/22 09:34:49;;;;;;;23.80;16.30;;;;;;;23.95;32.93;101009.08;111702;1232;63707;-94
2023/03/22 09:37:24;;;;;;;20.90;15.10;;;;;;;23.92;33.50;101013.42;112432;1232;60590;-94
2023/03/22 09:39:58;;;;;;;20.00;16.70;;;;;;;23.97;33.79;101011.23;112139;1232;73181;-94
2023/03/22 19:48:40;;;;;;;119.50;84.60;;;;;;;9.44;68.31;100988.45;109393;1256;614675;-96
2023/03/22 19:51:28;;;;;;;128.30;81.90;;;;;;;9.35;68.17;100981.72;106568;1247;5140355;-96
2023/03/22 19:54:33;;;;;;;131.60;82.10;;;;;;;9.29;68.28;100985.67;111096;1247;58722;-96
2023/03/22 19:57:36;;;;;;;134.60;81.00;;;;;;;9.20;68.32;100984.05;111301;1247;70787;-95
2023/03/22 20:04:36;;;;;;;127.30;79.10;;;;;;;8.99;68.97;100981.90;111329;1243;71178;-96
2023/03/22 20:08:14;;;;;;;130.50;77.20;;;;;;;8.89;69.75;100979.92;111390;1242;62932;-96
2023/03/22 20:21:12;;;;;;;125.20;78.90;;;;;;;8.69;70.52;100982.05;112059;1233;73671;-96
2023/03/22 20:37:45;;;;;;;130.80;82.90;;;;;;;8.29;70.82;100988.20;106379;1289;60741;-93
2023/03/22 20:46:22;;;;;;;134.70;83.40;;;;;;;8.16;71.45;100983.05;100928;1271;10137693;-95
2023/03/22 20:57:26;;;;;;;142.40;87.00;;;;;;;8.04;72.29;100984.79;107899;1267;59540;-95
2023/03/22 21:00:54;;;;;;;140.70;89.50;;;;;;;8.00;72.17;100986.34;107954;1268;71260;-96
2023/03/22 23:29:13;;;;;;;99.90;65.90;;;;;;;6.51;75.55;101023.42;112723;1232;59092;-96
2023/03/22 23:33:27;;;;;;;;;;;;;;;6.49;75.62;101029.92;112699;1233;71627;-96
2023/03/22 23:38:03;;;;;;;107.90;66.40;;;;;;;6.47;75.24;101030.17;112694;1231;62324;-96
